sensor_id;sensor_type;location;lat;lon;timestamp;temperature;humidity
23385;DHT22;11865;45.394;10.978;2023-06-05T00:00:23;17.50;99.90
23385;DHT22;11865;45.394;10.978;2023-06-05T00:02:50;17.50;99.90
23385;DHT22;11865;45.394;10.978;2023-06-05T00:05:18;17.40;99.90
23385;DHT22;11865;45.394;10.978;2023-06-05T00:07:46;17.40;99.90
23385;DHT22;11865;45.394;10.978;2023-06-05T00:10:14;17.40;99.90
23385;DHT22;11865;45.394;10.978;2023-06-05T00:12:41;17.40;99.90
23385;DHT22;11865;45.394;10.978;2023-06-05T00:15:09;17.40;99.90
23385;DHT22;11865;45.394;10.978;2023-06-05T00:17:37;17.40;99.90
23385;DHT22;11865;45.394;10.978;2023-06-05T00:20:05;17.40;99.90
23385;DHT22;11865;45.394;10.978;2023-06-05T00:22:37;17.40;99.90
23385;DHT22;11865;45.394;10.978;2023-06-05T00:25:06;17.30;99.90
23385;DHT22;11865;45.394;10.978;2023-06-05T00:27:34;17.40;99.90
23385;DHT22;11865;45.394;10.978;2023-06-05T00:30:02;17.40;99.90
23385;DHT22;11865;45.394;10.978;2023-06-05T00:32:29;17.40;99.90
23385;DHT22;11865;45.394;10.978;2023-06-05T00:34:57;17.50;99.90
23385;DHT22;11865;45.394;10.978;2023-06-05T00:37:25;17.40;99.90
23385;DHT22;11865;45.394;10.978;2023-06-05T00:39:54;17.40;99.90
23385;DHT22;11865;45.394;10.978;2023-06-05T00:42:21;17.40;99.90
23385;DHT22;11865;45.394;10.978;2023-06-05T00:44:49;17.40;99.90
23385;DHT22;11865;45.394;10.978;2023-06-05T00:47:17;17.40;99.90
23385;DHT22;11865;45.394;10.978;2023-06-05T00:49:45;17.40;99.90
23385;DHT22;11865;45.394;10.978;2023-06-05T00:52:12;17.40;99.90
23385;DHT22;11865;45.394;10.978;2023-06-05T00:54:41;17.50;99.90
23385;DHT22;11865;45.394;10.978;2023-06-05T00:57:09;17.40;99.90
23385;DHT22;11865;45.394;10.978;2023-06-05T00:59:37;17.40;99.90
23385;DHT22;11865;45.394;10.978;2023-06-05T01:02:04;17.40;99.90
23385;DHT22;11865;45.394;10.978;2023-06-05T01:04:33;17.30;99.90
23385;DHT22;11865;45.394;10.978;2023-06-05T01:07:04;17.30;99.90
23385;DHT22;11865;45.394;10.978;2023-06-05T01:09:33;17.30;99.90
23385;DHT22;11865;45.394;10.978;2023-06-05T01:12:15;17.40;99.90
23385;DHT22;11865;45.394;10.978;2023-06-05T01:14:45;17.30;99.90
23385;DHT22;11865;45.394;10.978;2023-06-05T01:17:16;17.30;99.90
23385;DHT22;11865;45.394;10.978;2023-06-05T01:19:48;17.30;99.90
23385;DHT22;11865;45.394;10.978;2023-06-05T01:22:17;17.30;99.90
23385;DHT22;11865;45.394;10.978;2023-06-05T01:24:44;17.40;99.90
23385;DHT22;11865;45.394;10.978;2023-06-05T01:27:15;17.40;99.90
23385;DHT22;11865;45.394;10.978;2023-06-05T01:32:42;17.30;99.90
23385;DHT22;11865;45.394;10.978;2023-06-05T01:35:11;17.30;99.90
23385;DHT22;11865;45.394;10.978;2023-06-05T01:37:48;17.20;99.90
23385;DHT22;11865;45.394;10.978;2023-06-05T01:40:20;17.10;99.90
23385;DHT22;11865;45.394;10.978;2023-06-05T01:42:49;17.10;99.90
23385;DHT22;11865;45.394;10.978;2023-06-05T01:45:18;17.10;99.90
23385;DHT22;11865;45.394;10.978;2023-06-05T01:47:46;17.10;99.90
23385;DHT22;11865;45.394;10.978;2023-06-05T01:50:17;17.10;99.90
23385;DHT22;11865;45.394;10.978;2023-06-05T01:52:46;17.00;99.90
23385;DHT22;11865;45.394;10.978;2023-06-05T01:55:19;17.10;99.90
23385;DHT22;11865;45.394;10.978;2023-06-05T01:57:51;17.00;99.90
23385;DHT22;11865;45.394;10.978;2023-06-05T02:00:18;17.10;99.90
23385;DHT22;11865;45.394;10.978;2023-06-05T02:02:47;17.10;99.90
23385;DHT22;11865;45.394;10.978;2023-06-05T02:05:16;17.10;99.90
23385;DHT22;11865;45.394;10.978;2023-06-05T02:07:45;17.10;99.90
23385;DHT22;11865;45.394;10.978;2023-06-05T02:10:25;17.10;99.90
23385;DHT22;11865;45.394;10.978;2023-06-05T02:12:53;17.20;99.90
23385;DHT22;11865;45.394;10.978;2023-06-05T02:15:20;17.20;99.90
23385;DHT22;11865;45.394;10.978;2023-06-05T02:17:49;17.20;99.90
23385;DHT22;11865;45.394;10.978;2023-06-05T02:20:25;17.20;99.90
23385;DHT22;11865;45.394;10.978;2023-06-05T02:22:53;17.20;99.90
23385;DHT22;11865;45.394;10.978;2023-06-05T02:25:22;17.30;99.90
23385;DHT22;11865;45.394;10.978;2023-06-05T02:27:54;17.30;99.90
23385;DHT22;11865;45.394;10.978;2023-06-05T02:30:22;17.30;99.90
23385;DHT22;11865;45.394;10.978;2023-06-05T02:32:51;17.30;99.90
23385;DHT22;11865;45.394;10.978;2023-06-05T02:35:24;17.30;99.90
23385;DHT22;11865;45.394;10.978;2023-06-05T02:37:52;17.30;99.90
23385;DHT22;11865;45.394;10.978;2023-06-05T02:40:20;17.30;99.90
23385;DHT22;11865;45.394;10.978;2023-06-05T02:42:48;17.30;99.90
23385;DHT22;11865;45.394;10.978;2023-06-05T02:45:15;17.30;99.90
23385;DHT22;11865;45.394;10.978;2023-06-05T02:47:43;17.30;99.90
23385;DHT22;11865;45.394;10.978;2023-06-05T02:50:11;17.30;99.90
23385;DHT22;11865;45.394;10.978;2023-06-05T02:52:44;17.40;99.90
23385;DHT22;11865;45.394;10.978;2023-06-05T02:55:17;17.40;99.90
23385;DHT22;11865;45.394;10.978;2023-06-05T02:57:46;17.40;99.90
23385;DHT22;11865;45.394;10.978;2023-06-05T03:00:23;17.30;99.90
23385;DHT22;11865;45.394;10.978;2023-06-05T03:02:53;17.30;99.90
23385;DHT22;11865;45.394;10.978;2023-06-05T03:05:28;17.30;99.90
23385;DHT22;11865;45.394;10.978;2023-06-05T03:08:02;17.30;99.90
23385;DHT22;11865;45.394;10.978;2023-06-05T03:10:32;17.20;99.90
23385;DHT22;11865;45.394;10.978;2023-06-05T03:13:00;17.20;99.90
23385;DHT22;11865;45.394;10.978;2023-06-05T03:15:31;17.30;99.90
23385;DHT22;11865;45.394;10.978;2023-06-05T03:17:58;17.30;99.90
23385;DHT22;11865;45.394;10.978;2023-06-05T03:20:27;17.40;99.90
23385;DHT22;11865;45.394;10.978;2023-06-05T03:22:54;17.30;99.90
23385;DHT22;11865;45.394;10.978;2023-06-05T03:25:24;17.40;99.90
23385;DHT22;11865;45.394;10.978;2023-06-05T03:27:55;17.40;99.90
23385;DHT22;11865;45.394;10.978;2023-06-05T03:30:25;17.40;99.90
23385;DHT22;11865;45.394;10.978;2023-06-05T03:32:55;17.30;99.90
23385;DHT22;11865;45.394;10.978;2023-06-05T03:35:23;17.20;99.90
23385;DHT22;11865;45.394;10.978;2023-06-05T03:37:53;17.30;99.90
23385;DHT22;11865;45.394;10.978;2023-06-05T03:40:20;17.20;99.90
23385;DHT22;11865;45.394;10.978;2023-06-05T03:42:48;17.20;99.90
23385;DHT22;11865;45.394;10.978;2023-06-05T03:45:18;17.20;99.90
23385;DHT22;11865;45.394;10.978;2023-06-05T03:47:46;17.20;99.90
23385;DHT22;11865;45.394;10.978;2023-06-05T03:50:17;17.20;99.90
23385;DHT22;11865;45.394;10.978;2023-06-05T03:52:44;17.20;99.90
23385;DHT22;11865;45.394;10.978;2023-06-05T03:55:13;17.20;99.90
23385;DHT22;11865;45.394;10.978;2023-06-05T03:57:40;17.20;99.90
23385;DHT22;11865;45.394;10.978;2023-06-05T04:00:11;17.20;99.90
23385;DHT22;11865;45.394;10.978;2023-06-05T04:02:51;17.20;99.90
23385;DHT22;11865;45.394;10.978;2023-06-05T04:05:20;17.10;99.90
23385;DHT22;11865;45.394;10.978;2023-06-05T04:07:49;17.10;99.90
23385;DHT22;11865;45.394;10.978;2023-06-05T04:10:17;17.10;99.90
23385;DHT22;11865;45.394;10.978;2023-06-05T04:12:44;17.10;99.90
23385;DHT22;11865;45.394;10.978;2023-06-05T04:15:12;17.00;99.90
23385;DHT22;11865;45.394;10.978;2023-06-05T04:17:41;17.10;99.90
23385;DHT22;11865;45.394;10.978;2023-06-05T04:20:10;17.10;99.90
23385;DHT22;11865;45.394;10.978;2023-06-05T04:22:42;17.10;99.90
23385;DHT22;11865;45.394;10.978;2023-06-05T04:25:10;17.00;99.90
23385;DHT22;11865;45.394;10.978;2023-06-05T04:27:43;16.90;99.90
23385;DHT22;11865;45.394;10.978;2023-06-05T04:30:12;16.80;99.90
23385;DHT22;11865;45.394;10.978;2023-06-05T04:32:41;16.80;99.90
23385;DHT22;11865;45.394;10.978;2023-06-05T04:35:11;16.80;99.90
23385;DHT22;11865;45.394;10.978;2023-06-05T04:37:39;16.90;99.90
23385;DHT22;11865;45.394;10.978;2023-06-05T04:40:08;16.80;99.90
23385;DHT22;11865;45.394;10.978;2023-06-05T04:42:39;16.80;99.90
23385;DHT22;11865;45.394;10.978;2023-06-05T04:45:08;16.80;99.90
23385;DHT22;11865;45.394;10.978;2023-06-05T04:47:39;16.80;99.90
23385;DHT22;11865;45.394;10.978;2023-06-05T04:50:07;16.90;99.90
23385;DHT22;11865;45.394;10.978;2023-06-05T04:52:39;17.00;99.90
23385;DHT22;11865;45.394;10.978;2023-06-05T04:55:10;17.00;99.90
23385;DHT22;11865;45.394;10.978;2023-06-05T04:57:39;17.00;99.90
23385;DHT22;11865;45.394;10.978;2023-06-05T05:00:08;17.00;99.90
23385;DHT22;11865;45.394;10.978;2023-06-05T05:02:37;17.10;99.90
23385;DHT22;11865;45.394;10.978;2023-06-05T05:05:06;17.10;99.90
23385;DHT22;11865;45.394;10.978;2023-06-05T05:07:33;17.10;99.90
23385;DHT22;11865;45.394;10.978;2023-06-05T05:10:03;17.10;99.90
23385;DHT22;11865;45.394;10.978;2023-06-05T05:12:31;17.10;99.90
23385;DHT22;11865;45.394;10.978;2023-06-05T05:14:59;17.20;99.90
23385;DHT22;11865;45.394;10.978;2023-06-05T05:17:26;17.20;99.90
23385;DHT22;11865;45.394;10.978;2023-06-05T05:19:54;17.20;99.90
23385;DHT22;11865;45.394;10.978;2023-06-05T05:22:24;17.20;99.90
23385;DHT22;11865;45.394;10.978;2023-06-05T05:24:51;17.30;99.90
23385;DHT22;11865;45.394;10.978;2023-06-05T05:27:19;17.40;99.90
23385;DHT22;11865;45.394;10.978;2023-06-05T05:29:48;17.40;99.90
23385;DHT22;11865;45.394;10.978;2023-06-05T05:32:15;17.40;99.90
23385;DHT22;11865;45.394;10.978;2023-06-05T05:34:43;17.30;99.90
23385;DHT22;11865;45.394;10.978;2023-06-05T05:37:10;17.40;99.90
23385;DHT22;11865;45.394;10.978;2023-06-05T05:39:39;17.40;99.90
23385;DHT22;11865;45.394;10.978;2023-06-05T05:42:07;17.40;99.90
23385;DHT22;11865;45.394;10.978;2023-06-05T05:44:34;17.40;99.90
23385;DHT22;11865;45.394;10.978;2023-06-05T05:47:03;17.40;99.90
23385;DHT22;11865;45.394;10.978;2023-06-05T05:49:31;17.50;99.90
23385;DHT22;11865;45.394;10.978;2023-06-05T05:51:58;17.60;99.90
23385;DHT22;11865;45.394;10.978;2023-06-05T05:54:26;17.70;99.90
23385;DHT22;11865;45.394;10.978;2023-06-05T05:56:54;17.80;99.90
23385;DHT22;11865;45.394;10.978;2023-06-05T05:59:22;17.80;99.90
23385;DHT22;11865;45.394;10.978;2023-06-05T06:01:50;17.80;99.90
23385;DHT22;11865;45.394;10.978;2023-06-05T06:04:17;17.90;99.90
23385;DHT22;11865;45.394;10.978;2023-06-05T06:06:45;18.00;99.90
23385;DHT22;11865;45.394;10.978;2023-06-05T06:09:15;18.10;99.90
23385;DHT22;11865;45.394;10.978;2023-06-05T06:11:44;18.10;99.90
23385;DHT22;11865;45.394;10.978;2023-06-05T06:14:11;18.30;99.90
23385;DHT22;11865;45.394;10.978;2023-06-05T06:16:39;18.30;99.90
23385;DHT22;11865;45.394;10.978;2023-06-05T06:19:07;18.10;99.90
23385;DHT22;11865;45.394;10.978;2023-06-05T06:21:35;18.20;99.90
23385;DHT22;11865;45.394;10.978;2023-06-05T06:24:03;18.40;99.90
23385;DHT22;11865;45.394;10.978;2023-06-05T06:26:32;18.30;99.90
23385;DHT22;11865;45.394;10.978;2023-06-05T06:28:59;18.20;99.90
23385;DHT22;11865;45.394;10.978;2023-06-05T06:31:27;18.00;99.90
23385;DHT22;11865;45.394;10.978;2023-06-05T06:33:54;17.90;99.90
23385;DHT22;11865;45.394;10.978;2023-06-05T06:36:22;17.80;99.90
23385;DHT22;11865;45.394;10.978;2023-06-05T06:38:50;18.00;99.90
23385;DHT22;11865;45.394;10.978;2023-06-05T06:41:17;17.70;99.90
23385;DHT22;11865;45.394;10.978;2023-06-05T06:43:45;17.80;99.90
23385;DHT22;11865;45.394;10.978;2023-06-05T06:46:13;17.90;99.90
23385;DHT22;11865;45.394;10.978;2023-06-05T06:48:40;17.90;99.90
23385;DHT22;11865;45.394;10.978;2023-06-05T06:51:08;18.00;99.90
23385;DHT22;11865;45.394;10.978;2023-06-05T06:53:36;18.00;99.90
23385;DHT22;11865;45.394;10.978;2023-06-05T06:56:04;17.80;99.90
23385;DHT22;11865;45.394;10.978;2023-06-05T06:58:32;17.80;99.90
23385;DHT22;11865;45.394;10.978;2023-06-05T07:00:59;17.80;99.90
23385;DHT22;11865;45.394;10.978;2023-06-05T07:03:27;17.70;99.90
23385;DHT22;11865;45.394;10.978;2023-06-05T07:05:55;17.80;99.90
23385;DHT22;11865;45.394;10.978;2023-06-05T07:08:23;17.70;99.90
23385;DHT22;11865;45.394;10.978;2023-06-05T07:10:52;17.90;99.90
23385;DHT22;11865;45.394;10.978;2023-06-05T07:13:23;18.00;99.90
23385;DHT22;11865;45.394;10.978;2023-06-05T07:15:51;18.10;99.90
23385;DHT22;11865;45.394;10.978;2023-06-05T07:18:19;18.20;99.90
23385;DHT22;11865;45.394;10.978;2023-06-05T07:20:47;18.10;99.90
23385;DHT22;11865;45.394;10.978;2023-06-05T07:23:14;18.00;99.90
23385;DHT22;11865;45.394;10.978;2023-06-05T07:25:42;18.20;99.90
23385;DHT22;11865;45.394;10.978;2023-06-05T07:28:10;18.20;99.90
23385;DHT22;11865;45.394;10.978;2023-06-05T07:30:40;18.20;99.90
23385;DHT22;11865;45.394;10.978;2023-06-05T07:33:10;18.30;99.90
23385;DHT22;11865;45.394;10.978;2023-06-05T07:35:55;18.20;99.90
23385;DHT22;11865;45.394;10.978;2023-06-05T07:38:23;17.80;99.90
23385;DHT22;11865;45.394;10.978;2023-06-05T07:40:50;17.70;99.90
23385;DHT22;11865;45.394;10.978;2023-06-05T07:43:18;17.60;99.90
23385;DHT22;11865;45.394;10.978;2023-06-05T07:45:45;17.70;99.90
23385;DHT22;11865;45.394;10.978;2023-06-05T07:48:13;17.90;99.90
23385;DHT22;11865;45.394;10.978;2023-06-05T07:50:41;18.00;99.90
23385;DHT22;11865;45.394;10.978;2023-06-05T07:53:08;17.90;99.90
23385;DHT22;11865;45.394;10.978;2023-06-05T07:55:36;18.10;99.90
23385;DHT22;11865;45.394;10.978;2023-06-05T07:58:03;18.30;99.90
23385;DHT22;11865;45.394;10.978;2023-06-05T08:00:31;18.50;99.90
23385;DHT22;11865;45.394;10.978;2023-06-05T08:02:58;18.30;99.90
23385;DHT22;11865;45.394;10.978;2023-06-05T08:05:27;18.60;99.90
23385;DHT22;11865;45.394;10.978;2023-06-05T08:07:55;18.70;99.90
23385;DHT22;11865;45.394;10.978;2023-06-05T08:10:23;18.50;99.90
23385;DHT22;11865;45.394;10.978;2023-06-05T08:12:50;18.60;99.90
23385;DHT22;11865;45.394;10.978;2023-06-05T08:15:18;18.50;99.90
23385;DHT22;11865;45.394;10.978;2023-06-05T08:17:45;18.70;99.90
23385;DHT22;11865;45.394;10.978;2023-06-05T08:20:13;19.10;99.90
23385;DHT22;11865;45.394;10.978;2023-06-05T08:22:41;18.70;99.90
23385;DHT22;11865;45.394;10.978;2023-06-05T08:25:10;18.90;99.90
23385;DHT22;11865;45.394;10.978;2023-06-05T08:27:38;18.90;99.90
23385;DHT22;11865;45.394;10.978;2023-06-05T08:30:06;19.00;99.90
23385;DHT22;11865;45.394;10.978;2023-06-05T08:32:33;19.00;99.90
23385;DHT22;11865;45.394;10.978;2023-06-05T08:35:01;18.80;99.90
23385;DHT22;11865;45.394;10.978;2023-06-05T08:37:29;18.80;99.90
23385;DHT22;11865;45.394;10.978;2023-06-05T08:39:57;18.70;99.90
23385;DHT22;11865;45.394;10.978;2023-06-05T08:42:27;18.80;99.90
23385;DHT22;11865;45.394;10.978;2023-06-05T08:44:56;18.60;99.90
23385;DHT22;11865;45.394;10.978;2023-06-05T08:47:29;18.80;99.90
23385;DHT22;11865;45.394;10.978;2023-06-05T08:50:04;18.50;99.90
23385;DHT22;11865;45.394;10.978;2023-06-05T08:52:38;18.60;99.90
23385;DHT22;11865;45.394;10.978;2023-06-05T08:55:06;18.80;99.90
23385;DHT22;11865;45.394;10.978;2023-06-05T08:57:35;18.90;99.90
23385;DHT22;11865;45.394;10.978;2023-06-05T09:00:08;18.80;99.90
23385;DHT22;11865;45.394;10.978;2023-06-05T09:02:42;19.00;99.90
23385;DHT22;11865;45.394;10.978;2023-06-05T09:05:17;19.00;99.90
23385;DHT22;11865;45.394;10.978;2023-06-05T09:07:44;19.10;99.90
23385;DHT22;11865;45.394;10.978;2023-06-05T09:10:24;19.10;99.90
23385;DHT22;11865;45.394;10.978;2023-06-05T09:12:58;18.90;99.90
23385;DHT22;11865;45.394;10.978;2023-06-05T09:15:27;18.90;99.90
23385;DHT22;11865;45.394;10.978;2023-06-05T09:18:09;18.80;99.90
23385;DHT22;11865;45.394;10.978;2023-06-05T09:20:38;18.80;99.90
23385;DHT22;11865;45.394;10.978;2023-06-05T09:23:28;19.10;99.90
23385;DHT22;11865;45.394;10.978;2023-06-05T09:25:58;19.10;99.90
23385;DHT22;11865;45.394;10.978;2023-06-05T09:28:26;19.30;99.90
23385;DHT22;11865;45.394;10.978;2023-06-05T09:31:03;19.50;99.90
23385;DHT22;11865;45.394;10.978;2023-06-05T09:33:33;19.60;99.90
23385;DHT22;11865;45.394;10.978;2023-06-05T09:36:10;19.40;99.90
23385;DHT22;11865;45.394;10.978;2023-06-05T09:38:41;19.30;99.90
23385;DHT22;11865;45.394;10.978;2023-06-05T09:41:11;19.30;99.90
23385;DHT22;11865;45.394;10.978;2023-06-05T09:43:39;19.60;99.90
23385;DHT22;11865;45.394;10.978;2023-06-05T09:46:12;19.60;99.90
23385;DHT22;11865;45.394;10.978;2023-06-05T09:48:41;19.60;99.90
23385;DHT22;11865;45.394;10.978;2023-06-05T09:51:16;19.60;99.90
23385;DHT22;11865;45.394;10.978;2023-06-05T09:53:46;19.50;99.90
23385;DHT22;11865;45.394;10.978;2023-06-05T09:56:16;19.50;99.90
23385;DHT22;11865;45.394;10.978;2023-06-05T09:58:46;19.30;99.90
23385;DHT22;11865;45.394;10.978;2023-06-05T10:01:19;19.20;99.90
23385;DHT22;11865;45.394;10.978;2023-06-05T10:03:58;19.70;99.90
23385;DHT22;11865;45.394;10.978;2023-06-05T10:06:27;19.80;99.90
23385;DHT22;11865;45.394;10.978;2023-06-05T10:08:56;19.60;99.90
23385;DHT22;11865;45.394;10.978;2023-06-05T10:11:24;19.50;99.90
23385;DHT22;11865;45.394;10.978;2023-06-05T10:13:56;19.30;99.90
23385;DHT22;11865;45.394;10.978;2023-06-05T10:16:27;19.40;99.90
23385;DHT22;11865;45.394;10.978;2023-06-05T10:18:57;19.40;99.90
23385;DHT22;11865;45.394;10.978;2023-06-05T10:21:25;19.50;99.90
23385;DHT22;11865;45.394;10.978;2023-06-05T10:26:43;19.40;99.90
23385;DHT22;11865;45.394;10.978;2023-06-05T10:32:40;19.30;99.90
23385;DHT22;11865;45.394;10.978;2023-06-05T10:38:20;19.50;99.90
23385;DHT22;11865;45.394;10.978;2023-06-05T10:41:00;19.70;99.90
23385;DHT22;11865;45.394;10.978;2023-06-05T10:43:52;19.90;99.90
23385;DHT22;11865;45.394;10.978;2023-06-05T10:46:36;20.10;99.90
23385;DHT22;11865;45.394;10.978;2023-06-05T10:51:47;19.70;99.90
23385;DHT22;11865;45.394;10.978;2023-06-05T10:59:20;20.50;99.90
23385;DHT22;11865;45.394;10.978;2023-06-05T11:07:25;20.60;99.90
23385;DHT22;11865;45.394;10.978;2023-06-05T11:15:35;21.10;99.90
23385;DHT22;11865;45.394;10.978;2023-06-05T11:18:31;20.90;99.90
23385;DHT22;11865;45.394;10.978;2023-06-05T11:21:00;20.80;99.90
23385;DHT22;11865;45.394;10.978;2023-06-05T11:23:29;21.10;99.90
23385;DHT22;11865;45.394;10.978;2023-06-05T11:25:58;21.40;99.90
23385;DHT22;11865;45.394;10.978;2023-06-05T11:28:45;21.40;99.90
23385;DHT22;11865;45.394;10.978;2023-06-05T11:31:27;21.60;99.90
23385;DHT22;11865;45.394;10.978;2023-06-05T11:33:56;20.60;99.90
23385;DHT22;11865;45.394;10.978;2023-06-05T11:36:24;20.70;99.90
23385;DHT22;11865;45.394;10.978;2023-06-05T11:38:54;20.30;99.90
23385;DHT22;11865;45.394;10.978;2023-06-05T11:41:23;20.30;99.90
23385;DHT22;11865;45.394;10.978;2023-06-05T11:43:52;20.70;99.90
23385;DHT22;11865;45.394;10.978;2023-06-05T11:46:19;20.90;99.90
23385;DHT22;11865;45.394;10.978;2023-06-05T11:48:48;21.20;99.90
23385;DHT22;11865;45.394;10.978;2023-06-05T11:51:15;21.40;99.90
23385;DHT22;11865;45.394;10.978;2023-06-05T11:53:45;21.30;99.90
23385;DHT22;11865;45.394;10.978;2023-06-05T11:56:16;21.70;99.90
23385;DHT22;11865;45.394;10.978;2023-06-05T11:58:44;21.90;99.90
23385;DHT22;11865;45.394;10.978;2023-06-05T12:03:42;21.10;99.90
23385;DHT22;11865;45.394;10.978;2023-06-05T12:06:10;21.80;99.90
23385;DHT22;11865;45.394;10.978;2023-06-05T12:08:41;21.80;99.90
23385;DHT22;11865;45.394;10.978;2023-06-05T12:11:26;21.30;99.90
23385;DHT22;11865;45.394;10.978;2023-06-05T12:13:55;21.10;99.90
23385;DHT22;11865;45.394;10.978;2023-06-05T12:16:31;21.60;99.90
23385;DHT22;11865;45.394;10.978;2023-06-05T12:19:01;22.00;99.90
23385;DHT22;11865;45.394;10.978;2023-06-05T12:21:43;21.90;99.90
23385;DHT22;11865;45.394;10.978;2023-06-05T12:24:11;21.90;99.90
23385;DHT22;11865;45.394;10.978;2023-06-05T12:26:50;21.80;99.90
23385;DHT22;11865;45.394;10.978;2023-06-05T12:29:30;21.70;99.90
23385;DHT22;11865;45.394;10.978;2023-06-05T12:32:00;21.70;99.90
23385;DHT22;11865;45.394;10.978;2023-06-05T12:34:40;21.70;99.90
23385;DHT22;11865;45.394;10.978;2023-06-05T12:37:29;21.40;99.90
23385;DHT22;11865;45.394;10.978;2023-06-05T12:40:01;21.50;99.90
23385;DHT22;11865;45.394;10.978;2023-06-05T12:42:33;21.30;99.90
23385;DHT22;11865;45.394;10.978;2023-06-05T12:45:05;21.20;99.90
23385;DHT22;11865;45.394;10.978;2023-06-05T12:47:37;21.30;99.90
23385;DHT22;11865;45.394;10.978;2023-06-05T12:50:06;21.10;99.90
23385;DHT22;11865;45.394;10.978;2023-06-05T12:52:34;21.00;99.90
23385;DHT22;11865;45.394;10.978;2023-06-05T12:55:02;21.10;99.90
23385;DHT22;11865;45.394;10.978;2023-06-05T12:57:31;21.10;99.90
23385;DHT22;11865;45.394;10.978;2023-06-05T12:59:59;21.00;99.90
23385;DHT22;11865;45.394;10.978;2023-06-05T13:02:37;21.10;99.90
23385;DHT22;11865;45.394;10.978;2023-06-05T13:05:05;21.00;99.90
23385;DHT22;11865;45.394;10.978;2023-06-05T13:07:33;20.90;99.90
23385;DHT22;11865;45.394;10.978;2023-06-05T13:10:01;21.10;99.90
23385;DHT22;11865;45.394;10.978;2023-06-05T13:12:28;21.00;99.90
23385;DHT22;11865;45.394;10.978;2023-06-05T13:14:56;21.20;99.90
23385;DHT22;11865;45.394;10.978;2023-06-05T13:17:23;21.20;99.90
23385;DHT22;11865;45.394;10.978;2023-06-05T13:19:53;21.30;99.90
23385;DHT22;11865;45.394;10.978;2023-06-05T13:22:20;21.60;99.90
23385;DHT22;11865;45.394;10.978;2023-06-05T13:24:48;21.60;99.90
23385;DHT22;11865;45.394;10.978;2023-06-05T13:27:17;21.40;99.90
23385;DHT22;11865;45.394;10.978;2023-06-05T13:29:45;21.50;99.90
23385;DHT22;11865;45.394;10.978;2023-06-05T13:32:13;21.40;99.90
23385;DHT22;11865;45.394;10.978;2023-06-05T13:34:41;21.80;99.90
23385;DHT22;11865;45.394;10.978;2023-06-05T13:37:08;21.90;99.90
23385;DHT22;11865;45.394;10.978;2023-06-05T13:39:40;21.90;99.90
23385;DHT22;11865;45.394;10.978;2023-06-05T13:42:08;22.00;99.90
23385;DHT22;11865;45.394;10.978;2023-06-05T13:44:36;21.90;99.90
23385;DHT22;11865;45.394;10.978;2023-06-05T13:47:04;21.70;99.90
23385;DHT22;11865;45.394;10.978;2023-06-05T13:49:32;21.90;99.90
23385;DHT22;11865;45.394;10.978;2023-06-05T13:51:59;21.70;99.90
23385;DHT22;11865;45.394;10.978;2023-06-05T13:54:27;21.70;99.90
23385;DHT22;11865;45.394;10.978;2023-06-05T13:56:54;21.90;99.90
23385;DHT22;11865;45.394;10.978;2023-06-05T13:59:22;21.80;99.90
23385;DHT22;11865;45.394;10.978;2023-06-05T14:01:49;21.80;99.90
23385;DHT22;11865;45.394;10.978;2023-06-05T14:04:17;22.00;99.90
23385;DHT22;11865;45.394;10.978;2023-06-05T14:06:44;22.00;99.90
23385;DHT22;11865;45.394;10.978;2023-06-05T14:09:12;22.00;99.90
23385;DHT22;11865;45.394;10.978;2023-06-05T14:11:39;22.00;99.90
23385;DHT22;11865;45.394;10.978;2023-06-05T14:14:12;22.00;99.90
23385;DHT22;11865;45.394;10.978;2023-06-05T14:16:40;22.00;99.90
23385;DHT22;11865;45.394;10.978;2023-06-05T14:19:07;22.20;99.90
23385;DHT22;11865;45.394;10.978;2023-06-05T14:21:35;22.20;99.90
23385;DHT22;11865;45.394;10.978;2023-06-05T14:24:02;22.40;99.90
23385;DHT22;11865;45.394;10.978;2023-06-05T14:26:30;22.10;99.90
23385;DHT22;11865;45.394;10.978;2023-06-05T14:28:58;22.10;99.90
23385;DHT22;11865;45.394;10.978;2023-06-05T14:31:25;21.80;99.90
23385;DHT22;11865;45.394;10.978;2023-06-05T14:33:56;22.20;99.90
23385;DHT22;11865;45.394;10.978;2023-06-05T14:36:24;22.40;99.90
23385;DHT22;11865;45.394;10.978;2023-06-05T14:38:52;22.20;99.90
23385;DHT22;11865;45.394;10.978;2023-06-05T14:41:23;22.20;99.90
23385;DHT22;11865;45.394;10.978;2023-06-05T14:43:51;22.10;99.90
23385;DHT22;11865;45.394;10.978;2023-06-05T14:46:19;22.00;99.90
23385;DHT22;11865;45.394;10.978;2023-06-05T14:48:47;22.50;99.90
23385;DHT22;11865;45.394;10.978;2023-06-05T14:51:14;22.30;99.90
23385;DHT22;11865;45.394;10.978;2023-06-05T14:53:42;22.10;99.90
23385;DHT22;11865;45.394;10.978;2023-06-05T14:56:09;22.40;99.90
23385;DHT22;11865;45.394;10.978;2023-06-05T14:58:37;22.30;99.90
23385;DHT22;11865;45.394;10.978;2023-06-05T15:01:05;22.70;99.90
23385;DHT22;11865;45.394;10.978;2023-06-05T15:03:32;22.40;99.90
23385;DHT22;11865;45.394;10.978;2023-06-05T15:06:00;22.80;99.90
23385;DHT22;11865;45.394;10.978;2023-06-05T15:08:46;22.90;99.90
23385;DHT22;11865;45.394;10.978;2023-06-05T15:11:14;22.90;99.90
23385;DHT22;11865;45.394;10.978;2023-06-05T15:13:42;22.90;99.90
23385;DHT22;11865;45.394;10.978;2023-06-05T15:16:10;23.30;99.50
23385;DHT22;11865;45.394;10.978;2023-06-05T15:18:37;23.20;99.90
23385;DHT22;11865;45.394;10.978;2023-06-05T15:21:06;23.00;99.90
23385;DHT22;11865;45.394;10.978;2023-06-05T15:23:36;23.10;99.90
23385;DHT22;11865;45.394;10.978;2023-06-05T15:26:04;23.30;99.60
23385;DHT22;11865;45.394;10.978;2023-06-05T15:28:31;23.20;99.90
23385;DHT22;11865;45.394;10.978;2023-06-05T15:30:59;23.00;99.50
23385;DHT22;11865;45.394;10.978;2023-06-05T15:33:27;22.70;99.20
23385;DHT22;11865;45.394;10.978;2023-06-05T15:35:54;22.90;99.90
23385;DHT22;11865;45.394;10.978;2023-06-05T15:38:22;23.10;99.20
23385;DHT22;11865;45.394;10.978;2023-06-05T15:40:49;23.10;99.90
23385;DHT22;11865;45.394;10.978;2023-06-05T15:43:17;23.30;99.20
23385;DHT22;11865;45.394;10.978;2023-06-05T15:45:44;23.40;99.40
23385;DHT22;11865;45.394;10.978;2023-06-05T15:48:12;23.40;99.90
23385;DHT22;11865;45.394;10.978;2023-06-05T15:50:39;23.20;98.80
23385;DHT22;11865;45.394;10.978;2023-06-05T15:53:07;23.40;99.40
23385;DHT22;11865;45.394;10.978;2023-06-05T15:55:35;23.30;98.90
23385;DHT22;11865;45.394;10.978;2023-06-05T15:58:06;23.10;99.00
23385;DHT22;11865;45.394;10.978;2023-06-05T16:00:34;23.10;99.10
23385;DHT22;11865;45.394;10.978;2023-06-05T16:03:02;22.90;99.40